createdAt,value
2019-03-10T00:00:04.876Z,99679.89
2019-03-10T00:00:36.091Z,99676.96
2019-03-10T00:01:07.357Z,99677.52
2019-03-10T00:01:38.562Z,99679.87
2019-03-10T00:02:10.567Z,99689.94
2019-03-10T00:02:41.856Z,99679.59
2019-03-10T00:03:13.098Z,99680.09
2019-03-10T00:03:44.306Z,99683.61
2019-03-10T00:04:15.517Z,99680.64
2019-03-10T00:04:46.728Z,99679.06
2019-03-10T00:05:17.937Z,99681.73
2019-03-10T00:05:49.156Z,99682.98
2019-03-10T00:06:20.422Z,99680.42
2019-03-10T00:06:51.627Z,99681.83
2019-03-10T00:07:22.841Z,99685.48
2019-03-10T00:07:54.137Z,99686.88
2019-03-10T00:08:25.323Z,99686.09
2019-03-10T00:08:56.523Z,99692.30
2019-03-10T00:09:27.739Z,99688.02
2019-03-10T00:09:58.963Z,99690.64
2019-03-10T00:10:30.263Z,99682.41
2019-03-10T00:11:01.464Z,99684.62
2019-03-10T00:11:32.755Z,99687.17
2019-03-10T00:12:03.962Z,99687.17
2019-03-10T00:12:35.176Z,99682.84
2019-03-10T00:13:06.408Z,99683.75
2019-03-10T00:13:37.612Z,99683.87
2019-03-10T00:14:08.820Z,99684.02
2019-03-10T00:14:40.042Z,99678.72
2019-03-10T00:15:11.566Z,99678.38
2019-03-10T00:15:42.792Z,99680.59
2019-03-10T00:16:13.998Z,99682.83
2019-03-10T00:16:45.252Z,99680.64
2019-03-10T00:17:16.454Z,99678.50
2019-03-10T00:17:47.712Z,99677.62
2019-03-10T00:18:18.932Z,99682.42
2019-03-10T00:18:50.125Z,99678.50
2019-03-10T00:19:21.499Z,99676.72
2019-03-10T00:19:52.703Z,99678.94
2019-03-10T00:20:23.902Z,99679.80
2019-03-10T00:20:55.164Z,99677.19
2019-03-10T00:21:26.396Z,99681.55
2019-03-10T00:21:57.593Z,99677.12
2019-03-10T00:22:28.809Z,99682.36
2019-03-10T00:23:00.033Z,99678.84
2019-03-10T00:23:31.240Z,99680.15
2019-03-10T00:24:02.446Z,99675.76
2019-03-10T00:24:33.648Z,99671.40
2019-03-10T00:25:04.853Z,99677.04
2019-03-10T00:25:36.068Z,99671.80
2019-03-10T00:26:07.311Z,99677.04
2019-03-10T00:26:38.566Z,99676.51
2019-03-10T00:27:09.793Z,99669.47
2019-03-10T00:27:41.010Z,99670.84
2019-03-10T00:28:12.205Z,99668.66
2019-03-10T00:28:43.402Z,99676.10
2019-03-10T00:29:14.613Z,99667.88
2019-03-10T00:29:45.818Z,99675.33
2019-03-10T00:30:17.032Z,99676.10
2019-03-10T00:30:48.230Z,99673.48
2019-03-10T00:31:19.442Z,99675.82
2019-03-10T00:31:50.688Z,99667.56
2019-03-10T00:32:21.893Z,99668.88
2019-03-10T00:32:53.103Z,99668.88
2019-03-10T00:33:24.324Z,99668.38
2019-03-10T00:33:55.555Z,99668.78
2019-03-10T00:34:26.776Z,99673.89
2019-03-10T00:34:57.985Z,99659.84
2019-03-10T00:35:29.210Z,99666.36
2019-03-10T00:36:00.392Z,99668.45
2019-03-10T00:36:31.585Z,99664.02
2019-03-10T00:37:02.826Z,99669.17
2019-03-10T00:37:34.037Z,99663.91
2019-03-10T00:38:05.249Z,99669.08
2019-03-10T00:38:36.458Z,99666.00
2019-03-10T00:39:07.664Z,99666.46
2019-03-10T00:39:38.873Z,99666.05
2019-03-10T00:40:10.082Z,99662.53
2019-03-10T00:40:41.312Z,99664.75
2019-03-10T00:41:12.553Z,99663.03
2019-03-10T00:41:43.752Z,99662.62
2019-03-10T00:42:14.954Z,99667.92
2019-03-10T00:42:46.153Z,99665.83
2019-03-10T00:43:17.415Z,99657.14
2019-03-10T00:43:49.598Z,99661.12
2019-03-10T00:44:20.803Z,99660.31
2019-03-10T00:44:52.030Z,99663.36
2019-03-10T00:45:23.221Z,99657.00
2019-03-10T00:45:54.417Z,99656.20
2019-03-10T00:46:25.646Z,99658.87
2019-03-10T00:46:56.938Z,99652.77
2019-03-10T00:47:28.099Z,99656.31
2019-03-10T00:47:59.295Z,99653.70
2019-03-10T00:48:30.511Z,99658.12
2019-03-10T00:49:01.717Z,99653.38
2019-03-10T00:49:32.917Z,99654.66
2019-03-10T00:50:04.137Z,99656.88
2019-03-10T00:50:35.523Z,99651.30
2019-03-10T00:51:06.741Z,99645.66
2019-03-10T00:51:37.954Z,99651.38
2019-03-10T00:52:09.193Z,99647.86
2019-03-10T00:52:40.419Z,99651.79
2019-03-10T00:53:11.679Z,99651.38
2019-03-10T00:53:42.881Z,99647.05
2019-03-10T00:54:14.077Z,99648.89
2019-03-10T00:54:45.328Z,99646.64
2019-03-10T00:55:16.536Z,99641.94
2019-03-10T00:55:47.746Z,99647.66
2019-03-10T00:56:18.941Z,99646.83
2019-03-10T00:56:50.155Z,99644.20
2019-03-10T00:57:21.361Z,99642.49
2019-03-10T00:57:52.611Z,99640.34
2019-03-10T00:58:23.822Z,99637.32
2019-03-10T00:58:55.020Z,99640.28
2019-03-10T00:59:26.224Z,99640.34
2019-03-10T00:59:57.420Z,99640.28
2019-03-10T01:00:28.628Z,99641.66
2019-03-10T01:00:59.822Z,99640.84
2019-03-10T01:01:31.027Z,99637.81
2019-03-10T01:02:02.227Z,99638.66
2019-03-10T01:02:33.478Z,99639.53
2019-03-10T01:03:04.700Z,99634.30
2019-03-10T01:03:35.927Z,99638.28
2019-03-10T01:04:07.134Z,99637.34
2019-03-10T01:04:38.385Z,99640.90
2019-03-10T01:05:09.591Z,99642.70
2019-03-10T01:05:40.782Z,99641.39
2019-03-10T01:06:11.988Z,99644.06
2019-03-10T01:06:43.226Z,99639.73
2019-03-10T01:07:14.437Z,99639.80
2019-03-10T01:07:45.630Z,99642.81
2019-03-10T01:08:16.828Z,99645.46
2019-03-10T01:08:48.039Z,99643.37
2019-03-10T01:09:19.246Z,99643.37
2019-03-10T01:09:50.482Z,99645.11
2019-03-10T01:10:21.788Z,99641.66
2019-03-10T01:10:53.039Z,99647.79
2019-03-10T01:11:24.239Z,99648.28
2019-03-10T01:11:55.449Z,99650.05
2019-03-10T01:12:26.654Z,99641.80
2019-03-10T01:12:57.864Z,99646.13
2019-03-10T01:13:29.148Z,99646.97
2019-03-10T01:14:00.338Z,99644.36
2019-03-10T01:14:31.535Z,99643.95
2019-03-10T01:15:02.836Z,99640.98
2019-03-10T01:15:34.025Z,99647.53
2019-03-10T01:16:05.282Z,99644.53
2019-03-10T01:16:36.497Z,99645.84
2019-03-10T01:17:07.695Z,99642.30
2019-03-10T01:17:38.903Z,99640.14
2019-03-10T01:18:10.104Z,99642.27
2019-03-10T01:18:41.321Z,99635.73
2019-03-10T01:19:12.544Z,99634.80
2019-03-10T01:19:43.728Z,99645.26
2019-03-10T01:20:14.982Z,99640.96
2019-03-10T01:20:46.181Z,99640.50
2019-03-10T01:21:17.413Z,99639.53
2019-03-10T01:21:48.615Z,99640.03
2019-03-10T01:22:19.809Z,99637.82
2019-03-10T01:22:51.002Z,99640.44
2019-03-10T01:23:22.201Z,99635.73
2019-03-10T01:23:53.413Z,99638.34
2019-03-10T01:24:24.625Z,99644.91
2019-03-10T01:24:55.861Z,99645.84
2019-03-10T01:25:27.099Z,99642.82
2019-03-10T01:25:58.296Z,99648.55
2019-03-10T01:26:29.498Z,99643.72
2019-03-10T01:27:00.709Z,99642.36
2019-03-10T01:27:31.906Z,99644.91
2019-03-10T01:28:03.106Z,99644.83
2019-03-10T01:28:34.326Z,99639.53
2019-03-10T01:29:05.533Z,99644.27
2019-03-10T01:29:36.733Z,99640.23
2019-03-10T01:30:07.975Z,99647.17
2019-03-10T01:30:39.224Z,99648.48
2019-03-10T01:31:10.446Z,99646.77
2019-03-10T01:31:41.639Z,99649.50
2019-03-10T01:32:12.838Z,99648.28
2019-03-10T01:32:44.086Z,99654.41
2019-03-10T01:33:15.288Z,99655.72
2019-03-10T01:33:46.534Z,99654.04
2019-03-10T01:34:17.752Z,99652.67
2019-03-10T01:34:48.954Z,99654.94
2019-03-10T01:35:20.182Z,99651.45
2019-03-10T01:35:51.382Z,99656.33
2019-03-10T01:36:22.647Z,99657.64
2019-03-10T01:36:53.863Z,99657.75
2019-03-10T01:37:25.067Z,99654.33
2019-03-10T01:37:56.278Z,99651.30
2019-03-10T01:38:27.492Z,99652.61
2019-03-10T01:38:58.702Z,99653.13
2019-03-10T01:39:29.952Z,99652.61
2019-03-10T01:40:01.152Z,99653.91
2019-03-10T01:40:32.369Z,99651.77
2019-03-10T01:41:03.569Z,99650.11
2019-03-10T01:41:34.771Z,99646.19
2019-03-10T01:42:05.974Z,99646.66
2019-03-10T01:42:37.182Z,99648.34
2019-03-10T01:43:08.446Z,99644.06
2019-03-10T01:43:39.637Z,99651.91
2019-03-10T01:44:10.845Z,99651.13
2019-03-10T01:44:42.040Z,99652.44
2019-03-10T01:45:13.244Z,99658.97
2019-03-10T01:45:44.443Z,99654.64
2019-03-10T01:46:15.650Z,99652.08
2019-03-10T01:46:46.856Z,99653.88
2019-03-10T01:47:18.074Z,99654.72
2019-03-10T01:47:49.313Z,99652.22
2019-03-10T01:48:20.510Z,99651.41
2019-03-10T01:48:51.706Z,99644.92
2019-03-10T01:49:22.922Z,99650.64
2019-03-10T01:49:54.152Z,99652.02
2019-03-10T01:50:25.372Z,99643.81
2019-03-10T01:50:56.570Z,99644.66
2019-03-10T01:51:27.782Z,99653.02
2019-03-10T01:51:58.995Z,99650.46
2019-03-10T01:52:30.208Z,99647.84
2019-03-10T01:53:01.414Z,99652.61
2019-03-10T01:53:32.630Z,99648.75
2019-03-10T01:54:03.932Z,99647.80
2019-03-10T01:54:35.165Z,99656.06
2019-03-10T01:55:06.365Z,99655.98
2019-03-10T01:55:37.577Z,99652.91
2019-03-10T01:56:08.786Z,99648.50
2019-03-10T01:56:40.005Z,99658.95
2019-03-10T01:57:11.221Z,99652.83
2019-03-10T01:57:42.490Z,99655.88
2019-03-10T01:58:13.686Z,99660.67
2019-03-10T01:58:44.973Z,99659.36
2019-03-10T01:59:16.223Z,99662.76
2019-03-10T01:59:47.469Z,99667.91
2019-03-10T02:00:18.723Z,99666.13
2019-03-10T02:00:49.914Z,99670.00
2019-03-10T02:01:21.108Z,99670.81
2019-03-10T02:01:52.324Z,99671.22
2019-03-10T02:02:25.657Z,99673.84
2019-03-10T02:02:56.490Z,99673.92
2019-03-10T02:03:27.715Z,99673.13
2019-03-10T02:03:58.912Z,99674.93
2019-03-10T02:04:30.118Z,99668.39
2019-03-10T02:05:01.335Z,99670.59
2019-03-10T02:05:32.547Z,99672.31
2019-03-10T02:06:03.757Z,99674.52
2019-03-10T02:06:34.955Z,99674.52
2019-03-10T02:07:06.161Z,99669.30
2019-03-10T02:07:37.404Z,99671.02
2019-03-10T02:08:08.610Z,99669.77
2019-03-10T02:08:39.855Z,99669.00
2019-03-10T02:09:11.057Z,99666.39
2019-03-10T02:09:42.261Z,99664.67
2019-03-10T02:10:13.479Z,99661.64
2019-03-10T02:10:44.687Z,99658.60
2019-03-10T02:11:15.888Z,99660.45
2019-03-10T02:11:47.086Z,99661.35
2019-03-10T02:12:18.297Z,99661.41
2019-03-10T02:12:49.546Z,99658.85
2019-03-10T02:13:20.746Z,99663.73
2019-03-10T02:13:52.035Z,99659.94
2019-03-10T02:14:23.243Z,99657.81
2019-03-10T02:14:54.456Z,99655.72
2019-03-10T02:15:25.653Z,99658.71
2019-03-10T02:15:56.852Z,99660.13
2019-03-10T02:16:28.095Z,99657.11
2019-03-10T02:16:59.345Z,99655.39
2019-03-10T02:17:30.558Z,99655.80
2019-03-10T02:18:01.766Z,99657.59
2019-03-10T02:18:32.966Z,99653.38
2019-03-10T02:19:04.186Z,99659.91
2019-03-10T02:19:35.427Z,99658.19
2019-03-10T02:20:06.623Z,99658.19
2019-03-10T02:20:37.843Z,99656.05
2019-03-10T02:21:09.052Z,99658.71
2019-03-10T02:21:40.311Z,99656.17
2019-03-10T02:22:11.524Z,99660.09
2019-03-10T02:22:42.733Z,99662.41
2019-03-10T02:23:13.927Z,99663.78
2019-03-10T02:23:45.169Z,99656.11
2019-03-10T02:24:23.686Z,99642.21
2019-03-10T02:24:49.294Z,99658.80
2019-03-10T02:25:20.494Z,99663.18
2019-03-10T02:25:51.695Z,99661.47
2019-03-10T02:26:22.894Z,99664.54
2019-03-10T02:26:54.103Z,99661.93
2019-03-10T02:27:25.300Z,99662.84
2019-03-10T02:27:56.511Z,99662.44
2019-03-10T02:28:27.714Z,99662.51
2019-03-10T02:28:58.965Z,99660.43
2019-03-10T02:29:30.534Z,99661.38
2019-03-10T02:30:01.767Z,99656.34
2019-03-10T02:30:33.010Z,99655.55
2019-03-10T02:31:04.294Z,99659.13
2019-03-10T02:31:35.498Z,99659.23
2019-03-10T02:32:06.708Z,99661.48
2019-03-10T02:32:37.946Z,99660.25
2019-03-10T02:33:09.176Z,99654.19
2019-03-10T02:33:40.458Z,99651.70
2019-03-10T02:34:11.667Z,99654.36
2019-03-10T02:34:42.880Z,99650.52
2019-03-10T02:35:14.096Z,99658.86
2019-03-10T02:35:45.327Z,99658.92
2019-03-10T02:36:16.555Z,99660.74
2019-03-10T02:36:47.765Z,99655.16
2019-03-10T02:37:18.963Z,99660.91
2019-03-10T02:37:50.155Z,99663.11
2019-03-10T02:38:21.355Z,99662.70
2019-03-10T02:38:52.600Z,99661.88
2019-03-10T02:39:23.817Z,99663.59
2019-03-10T02:39:55.001Z,99654.87
2019-03-10T02:40:26.204Z,99659.67
2019-03-10T02:40:57.481Z,99656.66
2019-03-10T02:41:28.662Z,99657.95
2019-03-10T02:41:59.881Z,99655.34
2019-03-10T02:42:31.064Z,99657.58
2019-03-10T02:43:02.266Z,99652.84
2019-03-10T02:43:33.473Z,99649.00
2019-03-10T02:44:04.677Z,99655.93
2019-03-10T02:44:35.883Z,99654.20
2019-03-10T02:45:07.084Z,99652.43
2019-03-10T02:45:38.306Z,99655.04
2019-03-10T02:46:09.525Z,99646.75
2019-03-10T02:46:40.729Z,99648.16
2019-03-10T02:47:11.946Z,99651.60
2019-03-10T02:47:43.178Z,99654.62
2019-03-10T02:48:14.371Z,99649.00
2019-03-10T02:48:45.570Z,99651.60
2019-03-10T02:49:16.761Z,99655.52
2019-03-10T02:49:47.960Z,99649.00
2019-03-10T02:50:19.168Z,99655.45
2019-03-10T02:50:50.387Z,99652.84
2019-03-10T02:51:21.590Z,99657.12
2019-03-10T02:51:52.841Z,99659.27
2019-03-10T02:52:24.044Z,99655.70
2019-03-10T02:52:55.239Z,99656.42
2019-03-10T02:53:26.439Z,99663.72
2019-03-10T02:53:57.642Z,99660.16
2019-03-10T02:54:28.835Z,99664.87
2019-03-10T02:55:00.059Z,99665.28
2019-03-10T02:55:31.256Z,99662.62
2019-03-10T02:56:02.456Z,99659.47
2019-03-10T02:56:33.668Z,99662.09
2019-03-10T02:57:04.902Z,99668.61
2019-03-10T02:57:36.124Z,99666.41
2019-03-10T02:58:07.305Z,99665.11
2019-03-10T02:58:38.500Z,99663.85
2019-03-10T02:59:09.702Z,99661.70
2019-03-10T02:59:40.956Z,99667.30
2019-03-10T03:00:12.157Z,99665.56
2019-03-10T03:00:43.362Z,99663.39
2019-03-10T03:01:14.616Z,99666.88
2019-03-10T03:01:45.812Z,99658.99
2019-03-10T03:02:17.022Z,99664.67
2019-03-10T03:02:48.250Z,99661.14
2019-03-10T03:03:19.450Z,99667.65
2019-03-10T03:03:50.658Z,99661.91
2019-03-10T03:04:21.929Z,99661.97
2019-03-10T03:04:53.544Z,99658.99
2019-03-10T03:05:24.785Z,99660.25
2019-03-10T03:05:55.988Z,99663.31
2019-03-10T03:06:27.219Z,99662.02
2019-03-10T03:06:58.416Z,99664.63
2019-03-10T03:07:29.623Z,99667.65
2019-03-10T03:08:00.837Z,99666.36
2019-03-10T03:08:32.257Z,99664.22
2019-03-10T03:09:03.805Z,99662.02
2019-03-10T03:09:35.011Z,99670.33
2019-03-10T03:10:06.249Z,99667.30
2019-03-10T03:10:37.523Z,99668.23
2019-03-10T03:11:08.727Z,99669.53
2019-03-10T03:11:39.962Z,99670.84
2019-03-10T03:12:11.169Z,99673.41
2019-03-10T03:12:42.445Z,99672.53
2019-03-10T03:13:13.634Z,99667.28
2019-03-10T03:13:44.839Z,99667.72
2019-03-10T03:14:16.043Z,99666.36
2019-03-10T03:14:47.229Z,99671.63
2019-03-10T03:15:18.440Z,99662.96
2019-03-10T03:15:49.640Z,99664.31
2019-03-10T03:16:20.918Z,99664.75
2019-03-10T03:16:52.957Z,99671.22
2019-03-10T03:17:24.388Z,99661.70
2019-03-10T03:17:55.602Z,99668.61
2019-03-10T03:18:26.813Z,99666.82
2019-03-10T03:18:58.033Z,99658.89
2019-03-10T03:19:29.279Z,99663.20
2019-03-10T03:20:00.573Z,99656.20
2019-03-10T03:20:31.760Z,99654.55
2019-03-10T03:21:02.956Z,99659.28
2019-03-10T03:21:42.949Z,99659.23
2019-03-10T03:22:07.092Z,99658.77
2019-03-10T03:22:38.343Z,99656.10
2019-03-10T03:23:09.550Z,99656.09
2019-03-10T03:23:40.786Z,99648.69
2019-03-10T03:24:12.088Z,99659.05
2019-03-10T03:24:43.271Z,99651.17
2019-03-10T03:25:14.470Z,99648.97
2019-03-10T03:25:45.671Z,99648.50
2019-03-10T03:26:16.863Z,99650.22
2019-03-10T03:26:48.073Z,99648.91
2019-03-10T03:27:19.329Z,99648.91
2019-03-10T03:27:50.522Z,99657.59
2019-03-10T03:28:21.731Z,99655.91
2019-03-10T03:28:52.936Z,99654.62
2019-03-10T03:29:24.174Z,99656.44
2019-03-10T03:29:55.390Z,99653.37
2019-03-10T03:30:26.598Z,99651.11
2019-03-10T03:30:57.794Z,99647.61
2019-03-10T03:31:29.002Z,99642.85
2019-03-10T03:32:00.275Z,99651.83
2019-03-10T03:32:31.503Z,99643.52
2019-03-10T03:33:02.755Z,99643.05
2019-03-10T03:33:34.066Z,99646.02
2019-03-10T03:34:05.368Z,99648.61
2019-03-10T03:34:36.569Z,99645.13
2019-03-10T03:35:07.783Z,99646.84
2019-03-10T03:35:39.018Z,99645.13
2019-03-10T03:36:10.235Z,99649.86
2019-03-10T03:36:41.417Z,99647.84
2019-03-10T03:37:12.626Z,99646.12
2019-03-10T03:37:43.824Z,99650.15
2019-03-10T03:38:15.027Z,99647.20
2019-03-10T03:38:46.242Z,99651.94
2019-03-10T03:39:17.511Z,99646.30
2019-03-10T03:39:48.692Z,99651.11
2019-03-10T03:40:19.902Z,99652.34
2019-03-10T03:40:51.123Z,99645.89
2019-03-10T03:41:22.330Z,99650.69
2019-03-10T03:41:53.535Z,99652.34
2019-03-10T03:42:24.746Z,99650.63
2019-03-10T03:42:55.951Z,99652.83
2019-03-10T03:43:27.157Z,99658.05
2019-03-10T03:43:58.381Z,99654.55
2019-03-10T03:44:29.634Z,99651.53
2019-03-10T03:45:00.845Z,99661.56
2019-03-10T03:45:32.076Z,99661.20
2019-03-10T03:46:03.262Z,99662.09
2019-03-10T03:46:34.473Z,99661.73
2019-03-10T03:47:05.685Z,99664.34
2019-03-10T03:47:36.863Z,99660.89
2019-03-10T03:48:08.071Z,99660.02
2019-03-10T03:48:39.303Z,99655.73
2019-03-10T03:49:10.536Z,99662.20
2019-03-10T03:49:41.749Z,99661.66
2019-03-10T03:50:12.959Z,99658.52
2019-03-10T03:50:44.161Z,99660.95
2019-03-10T03:51:15.380Z,99664.77
2019-03-10T03:51:46.758Z,99668.06
2019-03-10T03:52:17.997Z,99667.23
2019-03-10T03:52:49.242Z,99668.96
2019-03-10T03:53:20.451Z,99674.19
2019-03-10T03:53:51.642Z,99666.00
2019-03-10T03:54:22.845Z,99668.14
2019-03-10T03:54:54.039Z,99671.22
2019-03-10T03:55:25.232Z,99672.95
2019-03-10T03:55:56.434Z,99673.55
2019-03-10T03:56:27.644Z,99671.88
2019-03-10T03:56:58.849Z,99669.91
2019-03-10T03:57:30.039Z,99673.47
2019-03-10T03:58:01.277Z,99673.13
2019-03-10T03:58:32.459Z,99680.19
2019-03-10T03:59:03.817Z,99674.17
2019-03-10T03:59:35.013Z,99674.60
2019-03-10T04:00:06.204Z,99680.82
2019-03-10T04:00:37.389Z,99683.06
2019-03-10T04:01:08.597Z,99686.52
2019-03-10T04:01:39.819Z,99681.77
2019-03-10T04:02:11.019Z,99682.19
2019-03-10T04:02:42.260Z,99681.30
2019-03-10T04:03:13.456Z,99685.14
2019-03-10T04:03:44.685Z,99682.97
2019-03-10T04:04:15.889Z,99679.58
2019-03-10T04:04:47.106Z,99676.59
2019-03-10T04:05:18.319Z,99676.61
2019-03-10T04:05:49.536Z,99675.30
2019-03-10T04:06:20.821Z,99673.63
2019-03-10T04:06:52.005Z,99674.92
2019-03-10T04:07:23.215Z,99673.63
2019-03-10T04:07:54.451Z,99675.89
2019-03-10T04:08:25.660Z,99675.09
2019-03-10T04:08:56.892Z,99676.88
2019-03-10T04:09:28.130Z,99675.16
2019-03-10T04:09:59.337Z,99674.32
2019-03-10T04:10:30.552Z,99672.23
2019-03-10T04:11:01.772Z,99676.22
2019-03-10T04:11:32.983Z,99675.91
2019-03-10T04:12:04.171Z,99670.79
2019-03-10T04:12:35.382Z,99675.23
2019-03-10T04:13:06.590Z,99675.30
2019-03-10T04:13:37.778Z,99677.48
2019-03-10T04:14:08.979Z,99675.41
2019-03-10T04:14:40.229Z,99682.03
2019-03-10T04:15:11.420Z,99684.64
2019-03-10T04:15:42.628Z,99689.02
2019-03-10T04:16:13.844Z,99687.34
2019-03-10T04:16:45.055Z,99688.23
2019-03-10T04:17:16.260Z,99692.09
2019-03-10T04:17:47.471Z,99691.25
2019-03-10T04:18:18.670Z,99689.95
2019-03-10T04:18:49.873Z,99687.81
2019-03-10T04:19:21.069Z,99695.28
2019-03-10T04:19:52.309Z,99695.80
2019-03-10T04:20:23.505Z,99692.41
2019-03-10T04:20:54.709Z,99695.91
2019-03-10T04:21:25.905Z,99700.64
2019-03-10T04:21:57.117Z,99697.10
2019-03-10T04:22:28.337Z,99699.25
2019-03-10T04:22:59.550Z,99694.08
2019-03-10T04:23:30.802Z,99695.43
2019-03-10T04:24:01.964Z,99692.05
2019-03-10T04:24:33.164Z,99691.27
2019-03-10T04:25:04.381Z,99687.08
2019-03-10T04:25:35.622Z,99691.94
2019-03-10T04:26:06.832Z,99689.01
2019-03-10T04:26:38.205Z,99686.88
2019-03-10T04:27:09.441Z,99692.55
2019-03-10T04:27:40.633Z,99689.48
2019-03-10T04:28:11.835Z,99698.60
2019-03-10T04:28:43.054Z,99696.05
2019-03-10T04:29:14.270Z,99696.50
2019-03-10T04:29:45.467Z,99696.93
2019-03-10T04:30:16.735Z,99696.14
2019-03-10T04:30:47.946Z,99695.73
2019-03-10T04:31:19.157Z,99691.39
2019-03-10T04:31:50.390Z,99692.17
2019-03-10T04:32:21.605Z,99693.48
2019-03-10T04:32:52.817Z,99683.48
2019-03-10T04:33:24.031Z,99681.75
2019-03-10T04:33:55.274Z,99687.80
2019-03-10T04:34:26.498Z,99685.56
2019-03-10T04:34:57.723Z,99689.47
2019-03-10T04:35:28.920Z,99687.70
2019-03-10T04:36:00.135Z,99687.70
2019-03-10T04:36:31.351Z,99691.61
2019-03-10T04:37:02.598Z,99687.70
2019-03-10T04:37:33.761Z,99689.42
2019-03-10T04:38:04.959Z,99693.75
2019-03-10T04:38:36.157Z,99688.07
2019-03-10T04:39:07.382Z,99691.94
2019-03-10T04:39:38.633Z,99693.18
2019-03-10T04:40:09.816Z,99693.61
2019-03-10T04:40:41.011Z,99697.50
2019-03-10T04:41:12.213Z,99696.11
2019-03-10T04:41:43.415Z,99697.73
2019-03-10T04:42:14.677Z,99702.02
2019-03-10T04:42:45.913Z,99701.08
2019-03-10T04:43:17.108Z,99696.63
2019-03-10T04:43:48.324Z,99699.09
2019-03-10T04:44:19.543Z,99700.77
2019-03-10T04:44:50.800Z,99698.09
2019-03-10T04:45:21.995Z,99698.09
2019-03-10T04:45:53.207Z,99702.80
2019-03-10T04:46:24.423Z,99697.10
2019-03-10T04:46:55.619Z,99702.21
2019-03-10T04:47:26.896Z,99698.71
2019-03-10T04:47:58.109Z,99704.70
2019-03-10T04:48:29.312Z,99700.28
2019-03-10T04:49:00.521Z,99701.59
2019-03-10T04:49:31.722Z,99708.45
2019-03-10T04:50:02.941Z,99707.95
2019-03-10T04:50:34.143Z,99705.28
2019-03-10T04:51:05.337Z,99709.66
2019-03-10T04:51:36.543Z,99710.08
2019-03-10T04:52:07.775Z,99709.14
2019-03-10T04:52:38.989Z,99716.02
2019-03-10T04:53:10.186Z,99704.28
2019-03-10T04:53:41.387Z,99710.33
2019-03-10T04:54:12.585Z,99714.67
2019-03-10T04:54:43.785Z,99711.05
2019-03-10T04:55:15.039Z,99711.84
2019-03-10T04:55:46.240Z,99711.36
2019-03-10T04:56:17.443Z,99719.14
2019-03-10T04:56:48.653Z,99718.73
2019-03-10T04:57:19.859Z,99719.61
2019-03-10T04:57:51.055Z,99718.72
2019-03-10T04:58:22.259Z,99719.14
2019-03-10T04:58:53.456Z,99715.69
2019-03-10T04:59:24.648Z,99721.23
2019-03-10T04:59:55.903Z,99718.09
2019-03-10T05:00:27.109Z,99717.38
2019-03-10T05:00:58.324Z,99725.36
2019-03-10T05:01:29.537Z,99725.59
2019-03-10T05:02:00.748Z,99728.14
2019-03-10T05:02:31.946Z,99726.84
2019-03-10T05:03:03.144Z,99722.02
2019-03-10T05:03:34.346Z,99717.62
2019-03-10T05:04:05.595Z,99724.45
2019-03-10T05:04:36.779Z,99723.97
2019-03-10T05:05:08.006Z,99728.61
2019-03-10T05:05:39.194Z,99725.05
2019-03-10T05:06:10.410Z,99724.09
2019-03-10T05:06:41.668Z,99721.89
2019-03-10T05:07:12.912Z,99729.25
2019-03-10T05:07:44.110Z,99723.02
2019-03-10T05:08:15.297Z,99720.82
2019-03-10T05:08:46.496Z,99724.81
2019-03-10T05:09:17.695Z,99717.98
2019-03-10T05:09:48.905Z,99725.09
2019-03-10T05:10:20.106Z,99722.12
2019-03-10T05:10:51.305Z,99722.18
2019-03-10T05:11:22.551Z,99721.00
2019-03-10T05:11:53.746Z,99717.56
2019-03-10T05:12:24.951Z,99720.30
2019-03-10T05:12:56.147Z,99726.95
2019-03-10T05:13:27.428Z,99726.05
2019-03-10T05:13:58.626Z,99720.38
2019-03-10T05:14:29.833Z,99728.69
2019-03-10T05:15:01.020Z,99731.71
2019-03-10T05:15:32.274Z,99726.08
2019-03-10T05:16:03.486Z,99730.41
2019-03-10T05:16:34.689Z,99735.73
2019-03-10T05:17:05.890Z,99728.84
2019-03-10T05:17:37.100Z,99730.16
2019-03-10T05:18:08.308Z,99731.94
2019-03-10T05:18:39.523Z,99737.11
2019-03-10T05:19:10.755Z,99734.44
2019-03-10T05:19:41.957Z,99734.44
2019-03-10T05:20:13.160Z,99731.41
2019-03-10T05:20:44.457Z,99740.54
2019-03-10T05:21:15.640Z,99737.47
2019-03-10T05:21:46.838Z,99739.72
2019-03-10T05:22:19.208Z,99735.48
2019-03-10T05:22:50.416Z,99734.59
2019-03-10T05:23:21.616Z,99736.16
2019-03-10T05:23:52.854Z,99737.42
2019-03-10T05:24:24.047Z,99735.15
2019-03-10T05:24:55.286Z,99744.68
2019-03-10T05:25:26.508Z,99743.78
2019-03-10T05:25:57.702Z,99748.12
2019-03-10T05:26:28.898Z,99744.63
2019-03-10T05:27:00.102Z,99744.63
2019-03-10T05:27:31.308Z,99747.19
2019-03-10T05:28:02.503Z,99746.24
2019-03-10T05:28:33.718Z,99749.68
2019-03-10T05:29:04.919Z,99747.84
2019-03-10T05:29:36.125Z,99748.61
2019-03-10T05:30:07.385Z,99743.28
2019-03-10T05:30:39.788Z,99742.31
2019-03-10T05:31:10.991Z,99742.20
2019-03-10T05:31:42.195Z,99742.87
2019-03-10T05:32:13.399Z,99740.95
2019-03-10T05:32:44.638Z,99733.82
2019-03-10T05:33:15.840Z,99740.11
2019-03-10T05:33:47.043Z,99740.83
2019-03-10T05:34:18.289Z,99732.85
2019-03-10T05:34:49.497Z,99729.94
2019-03-10T05:35:20.784Z,99735.80
2019-03-10T05:35:51.992Z,99736.44
2019-03-10T05:36:23.187Z,99736.66
2019-03-10T05:36:54.382Z,99734.72
2019-03-10T05:37:25.592Z,99736.31
2019-03-10T05:37:56.804Z,99733.91
2019-03-10T05:38:27.997Z,99737.63
2019-03-10T05:38:59.201Z,99735.72
2019-03-10T05:39:30.395Z,99746.01
2019-03-10T05:40:01.602Z,99748.59
2019-03-10T05:40:32.864Z,99750.20
2019-03-10T05:41:04.066Z,99748.27
2019-03-10T05:41:35.265Z,99745.48
2019-03-10T05:42:06.475Z,99752.64
2019-03-10T05:42:37.688Z,99755.83
2019-03-10T05:43:08.897Z,99753.41
2019-03-10T05:43:40.110Z,99754.91
2019-03-10T05:44:11.311Z,99757.94
2019-03-10T05:44:42.511Z,99755.98
2019-03-10T05:45:13.715Z,99757.34
2019-03-10T05:45:44.969Z,99758.03
2019-03-10T05:46:16.168Z,99752.16
2019-03-10T05:46:47.380Z,99750.22
2019-03-10T05:47:18.581Z,99748.81
2019-03-10T05:47:49.804Z,99754.34
2019-03-10T05:48:20.995Z,99751.98
2019-03-10T05:48:52.202Z,99756.80
2019-03-10T05:49:23.417Z,99754.61
2019-03-10T05:49:54.616Z,99753.20
2019-03-10T05:50:25.813Z,99754.72
2019-03-10T05:50:57.068Z,99759.39
2019-03-10T05:51:28.274Z,99758.33
2019-03-10T05:51:59.456Z,99757.29
2019-03-10T05:52:30.672Z,99758.03
2019-03-10T05:53:01.849Z,99766.23
2019-03-10T05:53:33.054Z,99764.02
2019-03-10T05:54:04.293Z,99767.48
2019-03-10T05:54:35.530Z,99766.23
2019-03-10T05:55:06.729Z,99771.21
2019-03-10T05:55:37.942Z,99766.03
2019-03-10T05:56:09.129Z,99762.57
2019-03-10T05:56:40.325Z,99767.91
2019-03-10T05:57:11.528Z,99762.96
2019-03-10T05:57:42.729Z,99764.94
2019-03-10T05:58:13.926Z,99767.02
2019-03-10T05:58:45.129Z,99767.97
2019-03-10T05:59:16.344Z,99771.03
2019-03-10T05:59:47.606Z,99771.09
2019-03-10T06:00:18.803Z,99773.31
2019-03-10T06:00:49.993Z,99769.92
2019-03-10T06:01:21.211Z,99775.03
2019-03-10T06:01:52.399Z,99777.42
2019-03-10T06:02:23.604Z,99782.09
2019-03-10T06:02:54.799Z,99781.11
2019-03-10T06:03:26.021Z,99778.02
2019-03-10T06:03:57.239Z,99775.21
2019-03-10T06:04:28.483Z,99782.33
2019-03-10T06:04:59.694Z,99775.95
2019-03-10T06:05:30.923Z,99781.21
2019-03-10T06:06:02.123Z,99781.79
2019-03-10T06:06:33.324Z,99786.53